createdAt,value
2018-07-13T00:02:35.301Z,6.13
2018-07-13T00:05:38.424Z,5.90
2018-07-13T00:08:41.687Z,6.20
2018-07-13T00:11:45.135Z,6.57
2018-07-13T00:15:08.427Z,5.57
2018-07-13T00:18:11.573Z,5.63
2018-07-13T00:21:14.790Z,5.93
2018-07-13T00:24:17.962Z,5.80
2018-07-13T00:27:21.137Z,6.03
2018-07-13T00:30:24.314Z,5.80
2018-07-13T00:33:27.503Z,5.07
2018-07-13T00:36:31.002Z,6.17
2018-07-13T00:39:33.942Z,5.30
2018-07-13T00:42:37.118Z,6.33
2018-07-13T00:45:40.334Z,5.50
2018-07-13T00:48:43.835Z,5.97
2018-07-13T00:51:47.029Z,4.80
2018-07-13T00:54:50.291Z,5.63
2018-07-13T00:57:53.590Z,6.53
2018-07-13T01:00:56.793Z,5.50
2018-07-13T01:03:59.984Z,5.80
2018-07-13T01:07:03.180Z,6.37
2018-07-13T01:10:06.381Z,6.13
2018-07-13T01:13:09.599Z,6.50
2018-07-13T01:16:12.754Z,6.70
2018-07-13T01:19:15.944Z,5.73
2018-07-13T01:22:19.115Z,5.63
2018-07-13T01:25:22.288Z,6.67
2018-07-13T01:28:25.512Z,6.13
2018-07-13T01:31:28.701Z,6.50
2018-07-13T01:34:31.856Z,5.60
2018-07-13T01:37:35.078Z,5.53
2018-07-13T01:40:38.292Z,5.40
2018-07-13T01:43:41.512Z,5.60
2018-07-13T01:46:44.783Z,6.57
2018-07-13T01:49:48.060Z,6.37
2018-07-13T01:52:51.419Z,6.90
2018-07-13T01:55:54.670Z,6.23
2018-07-13T01:58:57.887Z,6.13
2018-07-13T02:02:01.087Z,6.17
2018-07-13T02:05:04.500Z,7.03
2018-07-13T02:08:07.696Z,6.70
2018-07-13T02:11:10.928Z,7.60
2018-07-13T02:14:14.080Z,6.97
2018-07-13T02:17:17.576Z,6.27
2018-07-13T02:20:20.839Z,7.37
2018-07-13T02:23:24.035Z,7.90
2018-07-13T02:26:27.233Z,7.00
2018-07-13T02:29:30.389Z,7.47
2018-07-13T02:32:33.536Z,7.57
2018-07-13T02:35:36.709Z,7.93
2018-07-13T02:38:39.851Z,7.60
2018-07-13T02:41:43.004Z,8.33
2018-07-13T02:44:46.160Z,7.20
2018-07-13T02:47:49.379Z,7.07
2018-07-13T02:50:52.625Z,8.00
2018-07-13T02:53:55.784Z,7.43
2018-07-13T02:56:58.980Z,7.60
2018-07-13T03:00:02.155Z,7.73
2018-07-13T03:03:05.423Z,8.00
2018-07-13T03:06:08.630Z,8.47
2018-07-13T03:09:12.771Z,7.27
2018-07-13T03:12:15.935Z,9.13
2018-07-13T03:15:19.140Z,8.83
2018-07-13T03:18:22.319Z,9.43
2018-07-13T03:21:25.480Z,8.13
2018-07-13T03:24:28.661Z,9.10
2018-07-13T03:27:31.859Z,9.40
2018-07-13T03:30:35.082Z,9.10
2018-07-13T03:33:38.300Z,9.33
2018-07-13T03:36:41.509Z,9.63
2018-07-13T03:39:44.796Z,10.77
2018-07-13T03:42:48.243Z,9.57
2018-07-13T03:45:51.482Z,9.60
2018-07-13T03:48:54.799Z,10.53
2018-07-13T03:51:58.099Z,10.30
2018-07-13T03:55:01.274Z,10.40
2018-07-13T03:58:04.520Z,10.67
2018-07-13T04:01:07.716Z,11.40
2018-07-13T04:04:10.915Z,11.40
2018-07-13T04:07:14.184Z,11.27
2018-07-13T04:10:17.407Z,10.63
2018-07-13T04:13:20.736Z,10.80
2018-07-13T04:16:24.057Z,10.50
2018-07-13T04:19:27.218Z,9.67
2018-07-13T04:22:30.408Z,11.40
2018-07-13T04:25:33.352Z,9.77
2018-07-13T04:28:37.930Z,11.10
2018-07-13T04:31:41.144Z,10.20
2018-07-13T04:34:44.359Z,10.03
2018-07-13T04:37:47.680Z,10.63
2018-07-13T04:40:50.908Z,10.67
2018-07-13T04:43:54.107Z,12.10
2018-07-13T04:46:57.288Z,11.70
2018-07-13T04:50:00.486Z,11.47
2018-07-13T04:53:03.655Z,12.47
2018-07-13T04:56:06.933Z,11.73
2018-07-13T04:59:10.204Z,11.50
2018-07-13T05:02:13.411Z,12.67
2018-07-13T05:05:16.902Z,11.20
2018-07-13T05:08:20.347Z,11.13
2018-07-13T05:11:23.711Z,11.03
2018-07-13T05:14:26.908Z,10.57
2018-07-13T05:17:30.123Z,10.57
2018-07-13T05:20:33.311Z,9.93
2018-07-13T05:23:36.507Z,9.37
2018-07-13T05:26:39.743Z,8.60
2018-07-13T05:29:43.004Z,8.97
2018-07-13T05:32:46.225Z,9.47
2018-07-13T05:35:49.693Z,8.97
2018-07-13T05:38:52.935Z,8.70
2018-07-13T05:41:56.094Z,8.87
2018-07-13T05:44:59.439Z,8.03
2018-07-13T05:48:02.644Z,8.97
2018-07-13T05:51:05.931Z,8.20
2018-07-13T05:54:09.704Z,8.77
2018-07-13T05:57:12.927Z,8.23
2018-07-13T06:00:16.089Z,8.20
2018-07-13T06:03:19.590Z,8.97
2018-07-13T06:06:23.185Z,8.17
2018-07-13T06:09:26.420Z,8.40
2018-07-13T06:12:29.569Z,7.73
2018-07-13T06:15:32.750Z,7.80
2018-07-13T06:18:35.951Z,8.17
2018-07-13T06:21:39.278Z,7.40
2018-07-13T06:24:42.445Z,7.90
2018-07-13T06:27:45.615Z,7.60
2018-07-13T06:30:48.824Z,8.13
2018-07-13T06:33:52.225Z,7.20
2018-07-13T06:36:55.552Z,7.90
2018-07-13T06:39:58.841Z,7.50
2018-07-13T06:43:02.001Z,7.53
2018-07-13T06:46:06.272Z,6.70
2018-07-13T06:49:09.706Z,6.83
2018-07-13T06:52:12.977Z,6.87
2018-07-13T06:55:17.019Z,5.90
2018-07-13T06:58:31.717Z,5.70
2018-07-13T07:01:35.055Z,5.90
2018-07-13T07:04:39.260Z,5.30
2018-07-13T07:07:42.461Z,6.07
2018-07-13T07:10:45.760Z,5.57
2018-07-13T07:13:49.800Z,5.73
2018-07-13T07:16:53.465Z,5.80
2018-07-13T07:19:56.708Z,4.90
2018-07-13T07:22:59.864Z,5.30
2018-07-13T07:26:03.576Z,5.70
2018-07-13T07:29:06.944Z,6.57
2018-07-13T07:32:10.150Z,7.00
2018-07-13T07:35:13.324Z,6.13
2018-07-13T07:38:16.581Z,5.77
2018-07-13T07:41:19.987Z,7.37
2018-07-13T07:44:23.256Z,5.23
2018-07-13T07:47:26.456Z,5.23
2018-07-13T07:50:29.921Z,5.87
2018-07-13T07:53:33.288Z,6.10
2018-07-13T07:56:36.551Z,5.00
2018-07-13T07:59:39.795Z,7.23
2018-07-13T08:02:43.043Z,5.10
2018-07-13T08:05:46.224Z,5.17
2018-07-13T08:08:49.520Z,4.60
2018-07-13T08:11:52.840Z,4.50
2018-07-13T08:14:56.884Z,4.77
2018-07-13T08:18:00.054Z,4.73
2018-07-13T08:21:03.212Z,4.63
2018-07-13T08:24:06.400Z,5.20
2018-07-13T08:27:13.093Z,4.50
2018-07-13T08:30:28.372Z,4.50
2018-07-13T08:33:31.673Z,4.70
2018-07-13T08:36:34.875Z,4.73
2018-07-13T08:39:38.116Z,4.77
2018-07-13T08:42:41.751Z,4.57
2018-07-13T08:45:44.962Z,4.50
2018-07-13T08:48:48.221Z,4.33
2018-07-13T08:51:51.722Z,4.10
2018-07-13T08:54:55.234Z,4.53
2018-07-13T08:57:58.709Z,4.63
2018-07-13T09:01:02.082Z,3.77
2018-07-13T09:04:05.499Z,4.07
2018-07-13T09:07:08.973Z,4.67
2018-07-13T09:10:13.132Z,4.77
2018-07-13T09:13:16.507Z,4.30
2018-07-13T09:16:19.993Z,4.53
2018-07-13T09:19:23.475Z,4.77
2018-07-13T09:22:26.659Z,4.20
2018-07-13T09:25:29.947Z,4.83
2018-07-13T09:28:32.970Z,4.20
2018-07-13T09:31:36.336Z,4.20
2018-07-13T09:34:39.596Z,4.57
2018-07-13T09:37:42.754Z,4.20
2018-07-13T09:40:45.939Z,4.60
2018-07-13T09:43:49.206Z,4.10
2018-07-13T09:46:52.522Z,4.23
2018-07-13T09:49:55.706Z,4.00
2018-07-13T09:52:58.872Z,4.17
2018-07-13T09:56:02.051Z,4.13
2018-07-13T09:59:05.417Z,4.33
2018-07-13T10:02:08.676Z,3.70
2018-07-13T10:05:11.878Z,4.40
2018-07-13T10:08:15.020Z,4.27
2018-07-13T10:11:18.224Z,3.60
2018-07-13T10:14:21.526Z,4.20
2018-07-13T10:17:24.702Z,4.07
2018-07-13T10:20:27.968Z,4.50
2018-07-13T10:23:31.615Z,4.00
2018-07-13T10:26:36.045Z,4.10
2018-07-13T10:29:43.751Z,4.27
2018-07-13T10:32:46.944Z,3.37
2018-07-13T10:35:50.851Z,3.67
2018-07-13T10:38:54.096Z,3.73
2018-07-13T10:41:57.255Z,3.87
2018-07-13T10:45:00.504Z,3.63
2018-07-13T10:48:03.664Z,4.57
2018-07-13T10:51:06.847Z,3.83
2018-07-13T10:54:10.001Z,3.93
2018-07-13T10:57:13.172Z,3.57
2018-07-13T11:00:16.324Z,4.40
2018-07-13T11:03:19.508Z,4.20
2018-07-13T11:06:22.701Z,4.70
2018-07-13T11:09:25.844Z,4.10
2018-07-13T11:12:29.049Z,4.43
2018-07-13T11:15:32.225Z,4.33
2018-07-13T11:18:35.448Z,3.60
2018-07-13T11:21:38.587Z,3.97
2018-07-13T11:24:41.772Z,5.00
2018-07-13T11:27:45.015Z,4.20
2018-07-13T11:30:48.172Z,3.83
2018-07-13T11:33:51.334Z,3.33
2018-07-13T11:36:54.678Z,3.80
2018-07-13T11:39:58.212Z,3.90
2018-07-13T11:43:01.220Z,3.33
2018-07-13T11:46:04.363Z,3.57
2018-07-13T11:49:07.675Z,3.93
2018-07-13T11:52:10.888Z,4.00
2018-07-13T11:55:14.012Z,3.40
2018-07-13T11:58:17.275Z,3.37
2018-07-13T12:01:20.576Z,3.00
2018-07-13T12:04:23.710Z,3.50
2018-07-13T12:07:27.021Z,4.13
2018-07-13T12:10:29.855Z,3.63
2018-07-13T12:13:33.003Z,3.13
2018-07-13T12:16:36.232Z,3.37
2018-07-13T12:19:39.373Z,2.57
2018-07-13T12:22:42.532Z,3.17
2018-07-13T12:25:45.735Z,3.23
2018-07-13T12:28:48.941Z,2.67
2018-07-13T12:31:52.099Z,3.20
2018-07-13T12:34:55.280Z,2.93
2018-07-13T12:37:58.469Z,4.30
2018-07-13T12:41:01.720Z,3.03
2018-07-13T12:44:04.843Z,3.07
2018-07-13T12:47:07.991Z,2.90
2018-07-13T12:50:11.152Z,2.90
2018-07-13T12:53:14.275Z,2.80
2018-07-13T12:56:17.469Z,3.23
2018-07-13T12:59:20.665Z,3.70
2018-07-13T13:02:23.817Z,2.33
2018-07-13T13:05:27.248Z,2.80
2018-07-13T13:08:30.970Z,2.73
2018-07-13T13:11:34.173Z,2.90
2018-07-13T13:14:37.352Z,2.80
2018-07-13T13:17:40.776Z,2.57
2018-07-13T13:20:43.951Z,3.60
2018-07-13T13:23:47.136Z,2.80
2018-07-13T13:26:50.304Z,2.67
2018-07-13T13:29:53.460Z,2.63
2018-07-13T13:32:56.633Z,2.70
2018-07-13T13:36:00.267Z,2.93
2018-07-13T13:39:04.673Z,2.50
2018-07-13T13:42:08.063Z,3.20
2018-07-13T13:45:11.219Z,2.53
2018-07-13T13:48:14.513Z,2.80
2018-07-13T13:51:17.963Z,2.73
2018-07-13T13:54:21.971Z,2.47
2018-07-13T13:57:25.237Z,2.80
2018-07-13T14:00:28.889Z,2.70
2018-07-13T14:03:32.509Z,3.50
2018-07-13T14:06:35.770Z,3.70
2018-07-13T14:09:39.056Z,3.17
2018-07-13T14:12:42.412Z,3.33
2018-07-13T14:15:45.620Z,2.90
2018-07-13T14:18:48.806Z,2.90
2018-07-13T14:21:51.876Z,3.20
2018-07-13T14:24:55.047Z,2.90
2018-07-13T14:27:58.316Z,2.77
2018-07-13T14:31:01.471Z,2.73
2018-07-13T14:34:04.748Z,3.07
2018-07-13T14:37:08.068Z,3.27
2018-07-13T14:40:11.035Z,3.20
2018-07-13T14:43:14.364Z,2.60
2018-07-13T14:46:17.546Z,2.47
2018-07-13T14:49:20.788Z,2.60
2018-07-13T14:52:24.128Z,2.70
2018-07-13T14:55:27.317Z,2.53
2018-07-13T14:58:30.507Z,2.57
2018-07-13T15:01:33.746Z,2.60
2018-07-13T15:04:36.961Z,2.40
2018-07-13T15:07:40.240Z,2.57
2018-07-13T15:10:43.582Z,2.80
2018-07-13T15:13:46.768Z,2.37
2018-07-13T15:16:50.086Z,2.27
2018-07-13T15:19:53.270Z,2.67
2018-07-13T15:22:56.623Z,3.37
2018-07-13T15:25:59.775Z,3.00
2018-07-13T15:29:03.075Z,2.67
2018-07-13T15:32:06.130Z,2.80
2018-07-13T15:35:09.502Z,2.50
2018-07-13T15:38:12.724Z,3.17
2018-07-13T15:41:15.995Z,2.57
2018-07-13T15:44:19.156Z,2.77
2018-07-13T15:47:22.516Z,2.80
2018-07-13T15:50:25.720Z,2.77
2018-07-13T15:53:28.932Z,2.50
2018-07-13T15:56:32.160Z,2.53
2018-07-13T15:59:35.343Z,2.97
2018-07-13T16:02:38.635Z,2.70
2018-07-13T16:05:41.844Z,4.40
2018-07-13T16:08:45.050Z,3.40
2018-07-13T16:11:48.233Z,3.00
2018-07-13T16:14:51.980Z,2.70
2018-07-13T16:17:55.363Z,2.50
2018-07-13T16:20:58.793Z,2.77
2018-07-13T16:24:02.357Z,2.50
2018-07-13T16:27:05.748Z,3.33
2018-07-13T16:30:09.055Z,2.33
2018-07-13T16:33:12.298Z,2.73
2018-07-13T16:36:15.539Z,2.47
2018-07-13T16:39:18.663Z,2.73
2018-07-13T16:42:21.807Z,2.13
2018-07-13T16:45:24.971Z,2.40
2018-07-13T16:48:28.227Z,2.80
2018-07-13T16:51:31.515Z,2.70
2018-07-13T16:54:34.872Z,2.80
2018-07-13T16:57:38.212Z,2.60
2018-07-13T17:00:41.548Z,2.47
2018-07-13T17:03:44.715Z,2.70
2018-07-13T17:06:47.952Z,2.60
2018-07-13T17:09:51.211Z,2.67
2018-07-13T17:12:54.748Z,2.90
2018-07-13T17:15:58.188Z,2.90
2018-07-13T17:19:01.469Z,2.73
2018-07-13T17:22:04.707Z,3.00
2018-07-13T17:25:07.921Z,2.50
2018-07-13T17:28:11.237Z,2.40
2018-07-13T17:31:14.384Z,3.30
2018-07-13T17:34:17.663Z,2.67
2018-07-13T17:37:20.842Z,2.60
2018-07-13T17:40:24.068Z,2.67
2018-07-13T17:43:27.308Z,2.13
2018-07-13T17:46:30.876Z,2.30
2018-07-13T17:49:34.028Z,3.13
2018-07-13T17:52:37.230Z,2.93
2018-07-13T17:55:40.413Z,2.70
2018-07-13T17:58:43.632Z,2.67
2018-07-13T18:01:46.871Z,2.40
2018-07-13T18:04:51.818Z,2.67
2018-07-13T18:07:55.328Z,2.60
2018-07-13T18:10:59.105Z,2.80
2018-07-13T18:14:02.268Z,2.67
2018-07-13T18:17:05.482Z,2.77
2018-07-13T18:20:08.876Z,3.03
2018-07-13T18:23:12.528Z,2.80
2018-07-13T18:26:15.716Z,2.90
2018-07-13T18:29:19.157Z,2.87
2018-07-13T18:32:23.133Z,2.77
2018-07-13T18:35:26.691Z,3.27
2018-07-13T18:38:29.923Z,2.77
2018-07-13T18:41:33.120Z,3.00
2018-07-13T18:44:36.274Z,2.83
2018-07-13T18:47:39.489Z,2.87
2018-07-13T18:50:42.876Z,2.70
2018-07-13T18:53:46.185Z,2.80
2018-07-13T18:56:49.922Z,2.60
2018-07-13T18:59:53.695Z,2.90
2018-07-13T19:02:57.016Z,3.03
2018-07-13T19:06:00.220Z,2.87
2018-07-13T19:09:03.572Z,3.43
2018-07-13T19:12:06.982Z,3.50
2018-07-13T19:15:10.406Z,2.93
2018-07-13T19:18:13.574Z,3.13
2018-07-13T19:21:16.504Z,3.00
2018-07-13T19:24:20.145Z,3.50
2018-07-13T19:27:23.877Z,3.60
2018-07-13T19:30:27.334Z,3.70
2018-07-13T19:33:30.518Z,3.40
2018-07-13T19:36:33.709Z,3.37
2018-07-13T19:39:37.848Z,3.67
2018-07-13T19:42:41.032Z,3.40
2018-07-13T19:45:44.292Z,4.03
2018-07-13T19:48:47.623Z,3.63
2018-07-13T19:51:51.463Z,4.00
2018-07-13T19:54:54.753Z,3.73
2018-07-13T19:57:57.948Z,3.63
2018-07-13T20:01:01.100Z,3.80
2018-07-13T20:04:04.264Z,3.60
2018-07-13T20:07:07.537Z,4.07
2018-07-13T20:10:10.724Z,3.90
2018-07-13T20:13:14.043Z,3.30
2018-07-13T20:16:17.440Z,3.77
2018-07-13T20:19:20.639Z,3.80
2018-07-13T20:22:23.804Z,3.67
2018-07-13T20:25:26.955Z,3.97
2018-07-13T20:28:30.096Z,3.83
2018-07-13T20:31:33.310Z,3.90
2018-07-13T20:34:36.443Z,3.57
2018-07-13T20:37:39.612Z,4.20
2018-07-13T20:40:42.853Z,4.10
2018-07-13T20:43:46.008Z,4.30
2018-07-13T20:46:49.214Z,3.67
2018-07-13T20:49:52.460Z,4.03
2018-07-13T20:52:55.689Z,4.33
2018-07-13T20:55:58.859Z,4.60
2018-07-13T20:59:02.032Z,4.43
2018-07-13T21:02:05.217Z,4.30
2018-07-13T21:05:08.466Z,5.10
2018-07-13T21:08:11.597Z,5.17
2018-07-13T21:11:14.746Z,5.17
2018-07-13T21:14:18.523Z,4.90
2018-07-13T21:17:21.832Z,4.53
2018-07-13T21:20:25.095Z,5.53
2018-07-13T21:26:37.019Z,5.97
2018-07-13T21:29:39.864Z,5.67
2018-07-13T21:32:43.023Z,6.47
2018-07-13T21:35:46.240Z,5.47
2018-07-13T21:38:49.534Z,6.73
2018-07-13T21:41:52.775Z,6.90
2018-07-13T21:44:55.969Z,6.27
2018-07-13T21:47:59.291Z,6.13
2018-07-13T21:51:02.537Z,6.00
2018-07-13T21:54:05.703Z,6.27
2018-07-13T21:57:08.952Z,6.00
2018-07-13T22:00:12.105Z,6.47
2018-07-13T22:03:15.408Z,6.43
2018-07-13T22:06:18.639Z,6.60
2018-07-13T22:09:21.903Z,5.90
2018-07-13T22:12:25.171Z,5.90
2018-07-13T22:15:28.352Z,6.67
2018-07-13T22:18:31.727Z,6.57
2018-07-13T22:21:35.030Z,5.90
2018-07-13T22:24:38.191Z,6.63
2018-07-13T22:27:41.384Z,6.37
2018-07-13T22:30:44.609Z,6.50
2018-07-13T22:33:47.829Z,6.77
2018-07-13T22:36:51.020Z,7.10
2018-07-13T22:39:54.177Z,7.00
2018-07-13T22:42:57.403Z,6.67
2018-07-13T22:46:00.635Z,7.10
2018-07-13T22:49:03.842Z,7.13
2018-07-13T22:52:07.090Z,6.87
2018-07-13T22:55:10.332Z,6.80
2018-07-13T22:58:13.468Z,6.20
2018-07-13T23:01:16.649Z,7.23
2018-07-13T23:04:19.830Z,6.97
2018-07-13T23:07:23.293Z,6.60
2018-07-13T23:10:26.447Z,7.03
2018-07-13T23:13:29.669Z,6.27
2018-07-13T23:16:32.844Z,6.77
2018-07-13T23:19:36.007Z,7.50
2018-07-13T23:22:39.340Z,7.17
2018-07-13T23:25:42.504Z,8.13
2018-07-13T23:28:45.672Z,7.00
2018-07-13T23:31:48.928Z,6.83
2018-07-13T23:34:52.075Z,7.00
2018-07-13T23:37:55.227Z,7.60
2018-07-13T23:40:58.426Z,6.67
2018-07-13T23:44:01.612Z,7.00
2018-07-13T23:47:04.824Z,7.87
2018-07-13T23:50:08.027Z,7.23
2018-07-13T23:53:11.227Z,6.67
2018-07-13T23:56:14.409Z,6.97
2018-07-13T23:59:17.572Z,6.67
